Search for airport 
image banner adimage banner ad
image banner ad

EKSY - Skuvoy

Situé à Skuvoy, Faroe Islands

ICAO - EKSY, IATA -

Données fournies par Airmate  

Information générale

Coordonnées: N61°46'10" W6°48'12"
Élévation : 70 feet MSL.
Variation magnétique : -8.1° East
Voir autres Aéroports à (unassigned)

Données opérationnelles

Special qualification required
Heure actuelle UTC:
Heure actuelle locale:
Météo à : EKVG - Vagar ( 41 km )
METAR: EKVG 011820Z AUTO 28003KT 2300 BR OVC004/// 07/07 Q1027
TAF: TAF EKVG 011422Z 0115/0124 24017G27KT 7000 -RADZ BR OVC004 TEMPO 0115/0121 1200 DZ BR VV001 BECMG 0116/0117 31007KT
Voir NOTAMs / SUP AIP / TFR affectant cet aéroport [VIEW]
Fréquences de communication: [VIEW]

Pistes:

Coordonnées de l'aéroport

Adresse: Skuvoy Faroe Islands

Vue satellite de EKSY